sensor_id;sensor_type;location;lat;lon;timestamp;pressure;altitude;pressure_sealevel;temperature;humidity
59055;BME280;44845;51.444;7.460;2022-12-24T00:00:25;98727.34;;;9.96;81.07
59055;BME280;44845;51.444;7.460;2022-12-24T00:02:50;98719.56;;;9.93;81.46
59055;BME280;44845;51.444;7.460;2022-12-24T00:05:15;98730.78;;;9.98;81.18
59055;BME280;44845;51.444;7.460;2022-12-24T00:07:41;98739.56;;;9.97;81.12
59055;BME280;44845;51.444;7.460;2022-12-24T00:10:07;98750.81;;;10.01;81.18
59055;BME280;44845;51.444;7.460;2022-12-24T00:12:33;98754.28;;;10.01;81.22
59055;BME280;44845;51.444;7.460;2022-12-24T00:14:58;98749.13;;;9.98;81.03
59055;BME280;44845;51.444;7.460;2022-12-24T00:17:24;98756.97;;;9.98;81.49
59055;BME280;44845;51.444;7.460;2022-12-24T00:19:49;98757.25;;;9.86;81.62
59055;BME280;44845;51.444;7.460;2022-12-24T00:22:14;98765.13;;;9.86;81.88
59055;BME280;44845;51.444;7.460;2022-12-24T00:24:40;98779.00;;;9.89;81.69
59055;BME280;44845;51.444;7.460;2022-12-24T00:27:05;98780.66;;;9.94;80.99
59055;BME280;44845;51.444;7.460;2022-12-24T00:29:31;98793.03;;;9.87;81.20
59055;BME280;44845;51.444;7.460;2022-12-24T00:31:57;98793.91;;;9.86;81.53
59055;BME280;44845;51.444;7.460;2022-12-24T00:34:23;98794.69;;;9.91;81.16
59055;BME280;44845;51.444;7.460;2022-12-24T00:36:48;98795.50;;;9.95;80.97
59055;BME280;44845;51.444;7.460;2022-12-24T00:39:14;98797.44;;;9.85;81.54
59055;BME280;44845;51.444;7.460;2022-12-24T00:41:39;98797.38;;;9.88;80.90
59055;BME280;44845;51.444;7.460;2022-12-24T00:44:05;98795.59;;;9.90;80.86
59055;BME280;44845;51.444;7.460;2022-12-24T00:46:34;98801.16;;;9.74;80.30
59055;BME280;44845;51.444;7.460;2022-12-24T00:49:00;98793.91;;;9.86;80.69
59055;BME280;44845;51.444;7.460;2022-12-24T00:51:26;98807.88;;;9.88;80.59
59055;BME280;44845;51.444;7.460;2022-12-24T00:53:51;98800.00;;;9.88;80.28
59055;BME280;44845;51.444;7.460;2022-12-24T00:56:17;98808.69;;;9.88;80.30
59055;BME280;44845;51.444;7.460;2022-12-24T00:58:43;98806.13;;;9.87;80.03
59055;BME280;44845;51.444;7.460;2022-12-24T01:01:08;98807.72;;;9.94;79.60
59055;BME280;44845;51.444;7.460;2022-12-24T01:03:34;98812.06;;;9.95;79.62
59055;BME280;44845;51.444;7.460;2022-12-24T01:06:03;98824.19;;;9.99;79.39
59055;BME280;44845;51.444;7.460;2022-12-24T01:08:29;98821.84;;;9.87;79.40
59055;BME280;44845;51.444;7.460;2022-12-24T01:10:54;98822.66;;;9.89;79.05
59055;BME280;44845;51.444;7.460;2022-12-24T01:13:20;98828.16;;;9.78;79.08
59055;BME280;44845;51.444;7.460;2022-12-24T01:15:46;98824.47;;;9.87;78.87
59055;BME280;44845;51.444;7.460;2022-12-24T01:18:11;98839.41;;;9.82;78.94
59055;BME280;44845;51.444;7.460;2022-12-24T01:20:36;98841.19;;;9.79;78.84
59055;BME280;44845;51.444;7.460;2022-12-24T01:23:02;98840.16;;;9.87;78.30
59055;BME280;44845;51.444;7.460;2022-12-24T01:25:27;98851.63;;;9.83;78.91
59055;BME280;44845;51.444;7.460;2022-12-24T01:27:52;98856.72;;;9.89;78.96
59055;BME280;44845;51.444;7.460;2022-12-24T01:30:18;98857.69;;;9.83;79.08
59055;BME280;44845;51.444;7.460;2022-12-24T01:32:43;98871.66;;;9.85;78.90
59055;BME280;44845;51.444;7.460;2022-12-24T01:35:09;98872.66;;;9.76;78.82
59055;BME280;44845;51.444;7.460;2022-12-24T01:37:34;98868.34;;;9.74;78.62
59055;BME280;44845;51.444;7.460;2022-12-24T01:40:00;98884.75;;;9.84;78.86
59055;BME280;44845;51.444;7.460;2022-12-24T01:42:46;98880.63;;;9.72;78.60
59055;BME280;44845;51.444;7.460;2022-12-24T01:45:48;98878.03;;;9.70;78.95
59055;BME280;44845;51.444;7.460;2022-12-24T01:50:54;98887.69;;;9.66;78.82
59055;BME280;44845;51.444;7.460;2022-12-24T01:53:20;98887.69;;;9.66;78.92
59055;BME280;44845;51.444;7.460;2022-12-24T01:55:46;98895.47;;;9.71;78.50
59055;BME280;44845;51.444;7.460;2022-12-24T01:58:13;98894.03;;;9.56;78.77
59055;BME280;44845;51.444;7.460;2022-12-24T02:00:39;98889.63;;;9.56;78.56
59055;BME280;44845;51.444;7.460;2022-12-24T02:03:05;98905.38;;;9.55;78.85
59055;BME280;44845;51.444;7.460;2022-12-24T02:08:05;98916.59;;;9.63;78.94
59055;BME280;44845;51.444;7.460;2022-12-24T02:10:31;98903.41;;;9.66;78.54
59055;BME280;44845;51.444;7.460;2022-12-24T02:12:57;98908.00;;;9.55;78.44
59055;BME280;44845;51.444;7.460;2022-12-24T02:15:24;98914.75;;;9.67;78.26
59055;BME280;44845;51.444;7.460;2022-12-24T02:18:06;98919.03;;;9.73;78.64
59055;BME280;44845;51.444;7.460;2022-12-24T02:23:08;98930.59;;;9.61;78.24
59055;BME280;44845;51.444;7.460;2022-12-24T02:26:06;98935.50;;;9.76;77.97
59055;BME280;44845;51.444;7.460;2022-12-24T02:31:40;98940.28;;;9.55;78.69
59055;BME280;44845;51.444;7.460;2022-12-24T02:34:38;98954.94;;;9.64;78.51
59055;BME280;44845;51.444;7.460;2022-12-24T02:37:14;98955.91;;;9.58;78.33
59055;BME280;44845;51.444;7.460;2022-12-24T02:39:57;98968.16;;;9.58;78.68
59055;BME280;44845;51.444;7.460;2022-12-24T02:42:30;98967.28;;;9.57;78.67
59055;BME280;44845;51.444;7.460;2022-12-24T02:45:01;98975.97;;;9.60;78.21
59055;BME280;44845;51.444;7.460;2022-12-24T02:47:27;98978.53;;;9.63;78.03
59055;BME280;44845;51.444;7.460;2022-12-24T02:49:54;98982.16;;;9.54;78.27
59055;BME280;44845;51.444;7.460;2022-12-24T02:52:39;98981.13;;;9.66;78.07
59055;BME280;44845;51.444;7.460;2022-12-24T02:58:27;98993.38;;;9.62;78.03
59055;BME280;44845;51.444;7.460;2022-12-24T03:04:20;98983.09;;;9.51;78.14
59055;BME280;44845;51.444;7.460;2022-12-24T03:07:22;98984.69;;;9.58;78.40
59055;BME280;44845;51.444;7.460;2022-12-24T03:10:11;98983.09;;;9.51;78.23
59055;BME280;44845;51.444;7.460;2022-12-24T03:12:45;98983.91;;;9.55;78.21
59055;BME280;44845;51.444;7.460;2022-12-24T03:15:14;98984.69;;;9.58;78.33
59055;BME280;44845;51.444;7.460;2022-12-24T03:17:42;98990.88;;;9.54;78.38
59055;BME280;44845;51.444;7.460;2022-12-24T03:20:10;98985.59;;;9.57;78.29
59055;BME280;44845;51.444;7.460;2022-12-24T03:22:37;98978.63;;;9.58;78.02
59055;BME280;44845;51.444;7.460;2022-12-24T03:25:03;98987.44;;;9.52;78.46
59055;BME280;44845;51.444;7.460;2022-12-24T03:27:29;98985.78;;;9.48;78.71
59055;BME280;44845;51.444;7.460;2022-12-24T03:29:56;98988.41;;;9.48;78.53
59055;BME280;44845;51.444;7.460;2022-12-24T03:32:24;98985.69;;;9.53;78.62
59055;BME280;44845;51.444;7.460;2022-12-24T03:34:50;98977.72;;;9.59;78.63
59055;BME280;44845;51.444;7.460;2022-12-24T03:37:15;98987.22;;;9.65;78.19
59055;BME280;44845;51.444;7.460;2022-12-24T03:39:40;98989.94;;;9.58;78.33
59055;BME280;44845;51.444;7.460;2022-12-24T03:42:06;99002.25;;;9.53;78.36
59055;BME280;44845;51.444;7.460;2022-12-24T03:44:31;99005.75;;;9.52;78.71
59055;BME280;44845;51.444;7.460;2022-12-24T03:46:57;99009.25;;;9.53;78.67
59055;BME280;44845;51.444;7.460;2022-12-24T03:49:22;99002.34;;;9.47;78.78
59055;BME280;44845;51.444;7.460;2022-12-24T03:51:47;99007.44;;;9.56;78.84
59055;BME280;44845;51.444;7.460;2022-12-24T03:54:13;98999.53;;;9.60;78.81
59055;BME280;44845;51.444;7.460;2022-12-24T03:56:38;99007.34;;;9.63;78.64
59055;BME280;44845;51.444;7.460;2022-12-24T03:59:03;99002.19;;;9.56;78.83
59055;BME280;44845;51.444;7.460;2022-12-24T04:01:29;99011.81;;;9.54;78.50
59055;BME280;44845;51.444;7.460;2022-12-24T04:03:54;99008.25;;;9.58;78.91
59055;BME280;44845;51.444;7.460;2022-12-24T04:06:19;99011.66;;;9.64;79.02
59055;BME280;44845;51.444;7.460;2022-12-24T04:08:45;99014.31;;;9.62;79.23
59055;BME280;44845;51.444;7.460;2022-12-24T04:11:12;99005.81;;;9.49;79.41
59055;BME280;44845;51.444;7.460;2022-12-24T04:13:38;99009.97;;;9.61;79.44
59055;BME280;44845;51.444;7.460;2022-12-24T04:16:08;99002.19;;;9.56;79.19
59055;BME280;44845;51.444;7.460;2022-12-24T04:18:35;99014.41;;;9.57;79.45
59055;BME280;44845;51.444;7.460;2022-12-24T04:21:00;99013.44;;;9.62;79.59
59055;BME280;44845;51.444;7.460;2022-12-24T04:23:26;99020.31;;;9.71;79.33
59055;BME280;44845;51.444;7.460;2022-12-24T04:25:54;99016.03;;;9.65;79.53
59055;BME280;44845;51.444;7.460;2022-12-24T04:28:19;99020.31;;;9.71;79.46
59055;BME280;44845;51.444;7.460;2022-12-24T04:30:44;99022.88;;;9.72;79.63
59055;BME280;44845;51.444;7.460;2022-12-24T04:33:10;99028.16;;;9.69;79.84
59055;BME280;44845;51.444;7.460;2022-12-24T04:35:39;99028.97;;;9.73;79.49
59055;BME280;44845;51.444;7.460;2022-12-24T04:38:08;99032.47;;;9.73;79.66
59055;BME280;44845;51.444;7.460;2022-12-24T04:40:34;99033.31;;;9.75;79.56
59055;BME280;44845;51.444;7.460;2022-12-24T04:42:59;99039.34;;;9.79;79.79
59055;BME280;44845;51.444;7.460;2022-12-24T04:45:25;99047.28;;;9.74;79.63
59055;BME280;44845;51.444;7.460;2022-12-24T04:47:50;99050.72;;;9.76;79.90
59055;BME280;44845;51.444;7.460;2022-12-24T04:50:15;99039.63;;;9.63;80.15
59055;BME280;44845;51.444;7.460;2022-12-24T04:52:41;99049.25;;;9.60;79.97
59055;BME280;44845;51.444;7.460;2022-12-24T04:55:07;99044.06;;;9.56;80.11
59055;BME280;44845;51.444;7.460;2022-12-24T04:57:33;99040.47;;;9.64;80.12
59055;BME280;44845;51.444;7.460;2022-12-24T05:00:00;99048.34;;;9.62;80.16
59055;BME280;44845;51.444;7.460;2022-12-24T05:02:25;99045.59;;;9.70;80.18
59055;BME280;44845;51.444;7.460;2022-12-24T05:04:50;99044.63;;;9.76;79.96
59055;BME280;44845;51.444;7.460;2022-12-24T05:07:16;99051.59;;;9.77;79.82
59055;BME280;44845;51.444;7.460;2022-12-24T05:09:41;99050.84;;;9.68;79.89
59055;BME280;44845;51.444;7.460;2022-12-24T05:12:07;99044.78;;;9.66;80.41
59055;BME280;44845;51.444;7.460;2022-12-24T05:14:32;99046.41;;;9.74;80.19
59055;BME280;44845;51.444;7.460;2022-12-24T05:16:57;99052.69;;;9.65;80.41
59055;BME280;44845;51.444;7.460;2022-12-24T05:19:23;99059.53;;;9.72;80.13
59055;BME280;44845;51.444;7.460;2022-12-24T05:21:48;99062.13;;;9.74;80.43
59055;BME280;44845;51.444;7.460;2022-12-24T05:24:33;99059.56;;;9.69;80.51
59055;BME280;44845;51.444;7.460;2022-12-24T05:27:17;99070.88;;;9.73;80.47
59055;BME280;44845;51.444;7.460;2022-12-24T05:29:42;99060.63;;;9.58;80.96
59055;BME280;44845;51.444;7.460;2022-12-24T05:32:08;99070.97;;;9.68;80.81
59055;BME280;44845;51.444;7.460;2022-12-24T05:34:33;99067.44;;;9.71;80.85
59055;BME280;44845;51.444;7.460;2022-12-24T05:36:58;99068.31;;;9.69;80.50
59055;BME280;44845;51.444;7.460;2022-12-24T05:39:24;99063.03;;;9.71;80.60
59055;BME280;44845;51.444;7.460;2022-12-24T05:41:49;99064.88;;;9.66;80.32
59055;BME280;44845;51.444;7.460;2022-12-24T05:44:14;99062.91;;;9.79;79.93
59055;BME280;44845;51.444;7.460;2022-12-24T05:46:40;99078.69;;;9.74;80.25
59055;BME280;44845;51.444;7.460;2022-12-24T05:49:06;99075.25;;;9.72;80.32
59055;BME280;44845;51.444;7.460;2022-12-24T05:51:31;99078.69;;;9.74;79.79
59055;BME280;44845;51.444;7.460;2022-12-24T05:53:56;99087.53;;;9.67;80.10
59055;BME280;44845;51.444;7.460;2022-12-24T05:56:23;99092.75;;;9.70;80.24
59055;BME280;44845;51.444;7.460;2022-12-24T05:58:49;99096.19;;;9.72;80.31
59055;BME280;44845;51.444;7.460;2022-12-24T06:01:15;99094.44;;;9.71;80.46
59055;BME280;44845;51.444;7.460;2022-12-24T06:03:40;99087.38;;;9.76;80.19
59055;BME280;44845;51.444;7.460;2022-12-24T06:06:11;99087.31;;;9.81;80.26
59055;BME280;44845;51.444;7.460;2022-12-24T06:08:38;99093.44;;;9.80;80.19
59055;BME280;44845;51.444;7.460;2022-12-24T06:11:06;99096.00;;;9.83;79.76
59055;BME280;44845;51.444;7.460;2022-12-24T06:13:32;99094.25;;;9.84;79.86
59055;BME280;44845;51.444;7.460;2022-12-24T06:15:59;99099.59;;;9.77;79.77
59055;BME280;44845;51.444;7.460;2022-12-24T06:18:27;99097.69;;;9.87;79.85
59055;BME280;44845;51.444;7.460;2022-12-24T06:20:54;99106.50;;;9.82;80.05
59055;BME280;44845;51.444;7.460;2022-12-24T06:23:21;99104.78;;;9.80;80.12
59055;BME280;44845;51.444;7.460;2022-12-24T06:25:46;99107.47;;;9.77;79.96
59055;BME280;44845;51.444;7.460;2022-12-24T06:28:12;99109.25;;;9.75;80.20
59055;BME280;44845;51.444;7.460;2022-12-24T06:30:38;99122.22;;;9.82;79.96
59055;BME280;44845;51.444;7.460;2022-12-24T06:33:03;99117.09;;;9.75;79.92
59055;BME280;44845;51.444;7.460;2022-12-24T06:35:30;99124.00;;;9.79;79.95
59055;BME280;44845;51.444;7.460;2022-12-24T06:37:55;99138.09;;;9.72;79.80
59055;BME280;44845;51.444;7.460;2022-12-24T06:40:21;99141.47;;;9.80;80.07
59055;BME280;44845;51.444;7.460;2022-12-24T06:42:46;99148.44;;;9.78;79.86
59055;BME280;44845;51.444;7.460;2022-12-24T06:45:11;99133.56;;;9.82;79.84
59055;BME280;44845;51.444;7.460;2022-12-24T06:47:37;99131.78;;;9.84;80.11
59055;BME280;44845;51.444;7.460;2022-12-24T06:50:02;99143.34;;;9.71;80.35
59055;BME280;44845;51.444;7.460;2022-12-24T06:52:28;99132.97;;;9.66;80.41
59055;BME280;44845;51.444;7.460;2022-12-24T06:54:53;99152.78;;;9.81;79.65
59055;BME280;44845;51.444;7.460;2022-12-24T06:57:18;99158.09;;;9.76;79.96
59055;BME280;44845;51.444;7.460;2022-12-24T06:59:44;99161.47;;;9.85;79.85
59055;BME280;44845;51.444;7.460;2022-12-24T07:02:09;99164.06;;;9.85;79.92
59055;BME280;44845;51.444;7.460;2022-12-24T07:04:34;99167.50;;;9.88;79.78
59055;BME280;44845;51.444;7.460;2022-12-24T07:07:00;99169.22;;;9.91;79.54
59055;BME280;44845;51.444;7.460;2022-12-24T07:09:25;99176.25;;;9.87;79.74
59055;BME280;44845;51.444;7.460;2022-12-24T07:11:50;99169.28;;;9.88;79.59
59055;BME280;44845;51.444;7.460;2022-12-24T07:14:16;99178.00;;;9.87;79.32
59055;BME280;44845;51.444;7.460;2022-12-24T07:16:41;99176.16;;;9.95;79.16
59055;BME280;44845;51.444;7.460;2022-12-24T07:19:06;99185.75;;;9.93;79.20
59055;BME280;44845;51.444;7.460;2022-12-24T07:21:32;99180.66;;;9.84;79.33
59055;BME280;44845;51.444;7.460;2022-12-24T07:23:57;99194.53;;;9.90;78.95
59055;BME280;44845;51.444;7.460;2022-12-24T07:26:22;99202.38;;;9.92;79.18
59055;BME280;44845;51.444;7.460;2022-12-24T07:28:48;99181.47;;;9.89;79.37
59055;BME280;44845;51.444;7.460;2022-12-24T07:31:13;99182.53;;;9.77;78.91
59055;BME280;44845;51.444;7.460;2022-12-24T07:33:38;99193.75;;;9.84;79.04
59055;BME280;44845;51.444;7.460;2022-12-24T07:36:05;99193.72;;;9.87;79.23
59055;BME280;44845;51.444;7.460;2022-12-24T07:38:32;99197.22;;;9.86;79.23
59055;BME280;44845;51.444;7.460;2022-12-24T07:40:58;99197.22;;;9.87;78.92
59055;BME280;44845;51.444;7.460;2022-12-24T07:43:24;99200.75;;;9.85;78.91
59055;BME280;44845;51.444;7.460;2022-12-24T07:45:52;99206.03;;;9.82;79.20
59055;BME280;44845;51.444;7.460;2022-12-24T07:48:18;99205.25;;;9.75;78.48
59055;BME280;44845;51.444;7.460;2022-12-24T07:50:43;99208.75;;;9.74;79.10
59055;BME280;44845;51.444;7.460;2022-12-24T07:53:08;99202.59;;;9.76;79.07
59055;BME280;44845;51.444;7.460;2022-12-24T07:55:35;99214.78;;;9.80;79.19
59055;BME280;44845;51.444;7.460;2022-12-24T07:58:00;99220.03;;;9.79;78.90
59055;BME280;44845;51.444;7.460;2022-12-24T08:00:26;99226.13;;;9.79;79.11
59055;BME280;44845;51.444;7.460;2022-12-24T08:02:51;99214.75;;;9.82;79.02
59055;BME280;44845;51.444;7.460;2022-12-24T08:05:16;99219.25;;;9.72;78.88
59055;BME280;44845;51.444;7.460;2022-12-24T08:07:42;99223.66;;;9.70;78.49
59055;BME280;44845;51.444;7.460;2022-12-24T08:10:07;99229.75;;;9.71;78.62
59055;BME280;44845;51.444;7.460;2022-12-24T08:12:33;99236.66;;;9.78;78.61
59055;BME280;44845;51.444;7.460;2022-12-24T08:14:58;99244.34;;;9.86;78.45
59055;BME280;44845;51.444;7.460;2022-12-24T08:17:23;99249.56;;;9.89;78.47
59055;BME280;44845;51.444;7.460;2022-12-24T08:19:49;99257.38;;;9.92;78.20
59055;BME280;44845;51.444;7.460;2022-12-24T08:22:14;99247.75;;;9.94;78.40
59055;BME280;44845;51.444;7.460;2022-12-24T08:24:40;99258.19;;;9.96;78.13
59055;BME280;44845;51.444;7.460;2022-12-24T08:27:05;99256.38;;;10.01;77.82
59055;BME280;44845;51.444;7.460;2022-12-24T08:29:31;99260.84;;;9.94;78.21
59055;BME280;44845;51.444;7.460;2022-12-24T08:31:56;99260.91;;;9.89;78.05
59055;BME280;44845;51.444;7.460;2022-12-24T08:34:21;99259.09;;;9.93;77.96
59055;BME280;44845;51.444;7.460;2022-12-24T08:36:47;99277.53;;;9.87;78.21
59055;BME280;44845;51.444;7.460;2022-12-24T08:39:12;99279.22;;;9.91;78.03
59055;BME280;44845;51.444;7.460;2022-12-24T08:41:37;99280.16;;;9.87;78.34
59055;BME280;44845;51.444;7.460;2022-12-24T08:44:03;99287.91;;;9.93;78.43
59055;BME280;44845;51.444;7.460;2022-12-24T08:46:28;99289.19;;;9.65;78.15
59055;BME280;44845;51.444;7.460;2022-12-24T08:48:53;99281.94;;;9.85;78.41
59055;BME280;44845;51.444;7.460;2022-12-24T08:51:19;99289.69;;;9.91;78.43
59055;BME280;44845;51.444;7.460;2022-12-24T08:53:44;99284.44;;;9.93;78.33
59055;BME280;44845;51.444;7.460;2022-12-24T08:56:10;99288.78;;;9.95;78.28
59055;BME280;44845;51.444;7.460;2022-12-24T08:58:36;99299.34;;;9.87;77.96
59055;BME280;44845;51.444;7.460;2022-12-24T09:01:12;99308.06;;;9.89;78.36
59055;BME280;44845;51.444;7.460;2022-12-24T09:03:38;99301.13;;;9.85;78.10
59055;BME280;44845;51.444;7.460;2022-12-24T09:06:05;99312.50;;;9.84;78.66
59055;BME280;44845;51.444;7.460;2022-12-24T09:08:31;99311.56;;;9.88;78.43
59055;BME280;44845;51.444;7.460;2022-12-24T09:11:02;99321.09;;;9.94;78.44
59055;BME280;44845;51.444;7.460;2022-12-24T09:13:27;99327.16;;;9.98;78.38
59055;BME280;44845;51.444;7.460;2022-12-24T09:15:54;99327.97;;;10.01;77.97
59055;BME280;44845;51.444;7.460;2022-12-24T09:18:19;99335.84;;;10.01;78.43
59055;BME280;44845;51.444;7.460;2022-12-24T09:20:44;99334.06;;;10.03;78.40
59055;BME280;44845;51.444;7.460;2022-12-24T09:23:10;99341.88;;;10.07;78.07
59055;BME280;44845;51.444;7.460;2022-12-24T09:25:40;99348.78;;;10.11;77.77
59055;BME280;44845;51.444;7.460;2022-12-24T09:28:05;99350.75;;;9.96;77.68
59055;BME280;44845;51.444;7.460;2022-12-24T09:30:30;99355.84;;;10.06;77.65
59055;BME280;44845;51.444;7.460;2022-12-24T09:32:56;99362.75;;;10.13;77.88
59055;BME280;44845;51.444;7.460;2022-12-24T09:35:21;99361.94;;;10.09;78.11
59055;BME280;44845;51.444;7.460;2022-12-24T09:37:46;99357.44;;;10.18;77.90
59055;BME280;44845;51.444;7.460;2022-12-24T09:40:23;99361.06;;;10.09;77.80
59055;BME280;44845;51.444;7.460;2022-12-24T09:42:53;99379.41;;;10.09;77.71
59055;BME280;44845;51.444;7.460;2022-12-24T09:45:25;99378.41;;;10.19;78.35
59055;BME280;44845;51.444;7.460;2022-12-24T09:47:56;99386.22;;;10.22;78.03
59055;BME280;44845;51.444;7.460;2022-12-24T09:52:49;99387.91;;;10.27;76.96
59055;BME280;44845;51.444;7.460;2022-12-24T09:55:22;99399.25;;;10.27;77.88
59055;BME280;44845;51.444;7.460;2022-12-24T09:57:51;99397.50;;;10.26;77.88
59055;BME280;44845;51.444;7.460;2022-12-24T10:00:26;99403.53;;;10.34;77.65
59055;BME280;44845;51.444;7.460;2022-12-24T10:02:52;99398.25;;;10.36;77.76
59055;BME280;44845;51.444;7.460;2022-12-24T10:11:44;99402.63;;;10.37;77.14
59055;BME280;44845;51.444;7.460;2022-12-24T10:17:37;99412.19;;;10.38;76.71
59055;BME280;44845;51.444;7.460;2022-12-24T10:20:21;99414.00;;;10.33;76.85
59055;BME280;44845;51.444;7.460;2022-12-24T10:25:51;99407.78;;;10.40;75.90
59055;BME280;44845;51.444;7.460;2022-12-24T10:28:22;99396.53;;;10.33;76.99
59055;BME280;44845;51.444;7.460;2022-12-24T10:30:51;99418.34;;;10.37;77.14
59055;BME280;44845;51.444;7.460;2022-12-24T10:33:31;99418.22;;;10.46;76.98
59055;BME280;44845;51.444;7.460;2022-12-24T10:35:59;99410.28;;;10.50;76.65
59055;BME280;44845;51.444;7.460;2022-12-24T10:38:24;99419.91;;;10.51;77.03
59055;BME280;44845;51.444;7.460;2022-12-24T10:40:53;99414.78;;;10.41;76.49
59055;BME280;44845;51.444;7.460;2022-12-24T10:43:22;99413.88;;;10.44;76.71
59055;BME280;44845;51.444;7.460;2022-12-24T10:46:04;99410.31;;;10.51;76.61
59055;BME280;44845;51.444;7.460;2022-12-24T10:48:36;99409.50;;;10.44;76.46
59055;BME280;44845;51.444;7.460;2022-12-24T10:51:09;99412.09;;;10.46;76.40
59055;BME280;44845;51.444;7.460;2022-12-24T10:53:49;99403.47;;;10.39;76.63
59055;BME280;44845;51.444;7.460;2022-12-24T10:56:17;99409.44;;;10.47;76.74
59055;BME280;44845;51.444;7.460;2022-12-24T10:58:51;99409.44;;;10.47;76.40
59055;BME280;44845;51.444;7.460;2022-12-24T11:01:17;99405.03;;;10.53;76.24
59055;BME280;44845;51.444;7.460;2022-12-24T11:03:43;99399.91;;;10.43;76.20
59055;BME280;44845;51.444;7.460;2022-12-24T11:06:15;99407.78;;;10.40;76.55
59055;BME280;44845;51.444;7.460;2022-12-24T11:08:46;99406.13;;;10.36;76.30
59055;BME280;44845;51.444;7.460;2022-12-24T11:11:14;99408.69;;;10.38;76.54
59055;BME280;44845;51.444;7.460;2022-12-24T11:13:43;99401.69;;;10.41;76.98
59055;BME280;44845;51.444;7.460;2022-12-24T11:16:24;99411.19;;;10.48;76.54
59055;BME280;44845;51.444;7.460;2022-12-24T11:18:55;99404.19;;;10.51;76.46
59055;BME280;44845;51.444;7.460;2022-12-24T11:21:24;99398.00;;;10.55;76.42
59055;BME280;44845;51.444;7.460;2022-12-24T11:23:54;99402.41;;;10.54;76.52
59055;BME280;44845;51.444;7.460;2022-12-24T11:26:24;99403.34;;;10.47;76.54
59055;BME280;44845;51.444;7.460;2022-12-24T11:29:22;99400.69;;;10.52;76.33
59055;BME280;44845;51.444;7.460;2022-12-24T11:31:49;99392.78;;;10.53;76.08
59055;BME280;44845;51.444;7.460;2022-12-24T11:34:26;99396.13;;;10.63;76.02
59055;BME280;44845;51.444;7.460;2022-12-24T11:36:55;99395.31;;;10.61;76.02
59055;BME280;44845;51.444;7.460;2022-12-24T11:39:38;99387.50;;;10.56;75.77
59055;BME280;44845;51.444;7.460;2022-12-24T11:42:03;99392.78;;;10.50;75.68
59055;BME280;44845;51.444;7.460;2022-12-24T11:44:29;99387.63;;;10.47;75.56
59055;BME280;44845;51.444;7.460;2022-12-24T11:46:55;99395.38;;;10.55;76.13
59055;BME280;44845;51.444;7.460;2022-12-24T11:49:28;99406.69;;;10.57;76.06
59055;BME280;44845;51.444;7.460;2022-12-24T11:54:26;99393.66;;;10.54;75.95
59055;BME280;44845;51.444;7.460;2022-12-24T11:56:56;99402.38;;;10.56;76.03
59055;BME280;44845;51.444;7.460;2022-12-24T11:59:39;99402.31;;;10.59;76.20
59055;BME280;44845;51.444;7.460;2022-12-24T12:04:49;99403.38;;;10.42;76.60
59055;BME280;44845;51.444;7.460;2022-12-24T12:07:29;99420.75;;;10.54;76.44
59055;BME280;44845;51.444;7.460;2022-12-24T12:12:41;99420.75;;;10.54;76.06
59055;BME280;44845;51.444;7.460;2022-12-24T12:15:16;99418.94;;;10.58;75.40
59055;BME280;44845;51.444;7.460;2022-12-24T12:18:06;99422.53;;;10.47;75.06
59055;BME280;44845;51.444;7.460;2022-12-24T12:20:37;99420.72;;;10.56;75.42
59055;BME280;44845;51.444;7.460;2022-12-24T12:23:16;99419.78;;;10.60;75.43
59055;BME280;44845;51.444;7.460;2022-12-24T12:25:59;99419.75;;;10.63;76.15
59055;BME280;44845;51.444;7.460;2022-12-24T12:28:31;99431.09;;;10.64;76.01
59055;BME280;44845;51.444;7.460;2022-12-24T12:31:04;99431.09;;;10.64;75.49
59055;BME280;44845;51.444;7.460;2022-12-24T12:33:47;99424.06;;;10.64;75.10
59055;BME280;44845;51.444;7.460;2022-12-24T12:36:18;99431.94;;;10.64;75.87
59055;BME280;44845;51.444;7.460;2022-12-24T12:38:44;99430.13;;;10.69;75.89
59055;BME280;44845;51.444;7.460;2022-12-24T12:41:36;99443.22;;;10.71;75.55
59055;BME280;44845;51.444;7.460;2022-12-24T12:44:13;99431.91;;;10.67;75.95
59055;BME280;44845;51.444;7.460;2022-12-24T12:49:18;99438.25;;;10.54;74.94
59055;BME280;44845;51.444;7.460;2022-12-24T12:52:18;99447.88;;;10.52;75.22
59055;BME280;44845;51.444;7.460;2022-12-24T12:55:21;99451.34;;;10.54;75.15
59055;BME280;44845;51.444;7.460;2022-12-24T12:57:49;99451.28;;;10.57;74.11
59055;BME280;44845;51.444;7.460;2022-12-24T13:00:18;99446.97;;;10.50;75.00
59055;BME280;44845;51.444;7.460;2022-12-24T13:08:30;99460.75;;;10.67;73.98
59055;BME280;44845;51.444;7.460;2022-12-24T13:11:24;99463.38;;;10.67;73.77
59055;BME280;44845;51.444;7.460;2022-12-24T13:19:50;99477.25;;;10.74;73.95
59055;BME280;44845;51.444;7.460;2022-12-24T13:22:22;99476.41;;;10.74;73.57
59055;BME280;44845;51.444;7.460;2022-12-24T13:24:52;99475.56;;;10.72;73.58
59055;BME280;44845;51.444;7.460;2022-12-24T13:27:32;99478.19;;;10.70;73.77
59055;BME280;44845;51.444;7.460;2022-12-24T13:29:59;99476.50;;;10.69;73.56
59055;BME280;44845;51.444;7.460;2022-12-24T13:34:56;99483.63;;;10.59;73.88
59055;BME280;44845;51.444;7.460;2022-12-24T13:48:00;99486.97;;;10.69;74.93
59055;BME280;44845;51.444;7.460;2022-12-24T13:50:42;99489.59;;;10.67;74.71
59055;BME280;44845;51.444;7.460;2022-12-24T13:58:40;99492.31;;;10.61;74.46
59055;BME280;44845;51.444;7.460;2022-12-24T14:01:12;99494.13;;;10.56;73.84
59055;BME280;44845;51.444;7.460;2022-12-24T14:03:45;99491.59;;;10.51;73.34
59055;BME280;44845;51.444;7.460;2022-12-24T14:06:26;99490.72;;;10.49;73.45
59055;BME280;44845;51.444;7.460;2022-12-24T14:09:13;99495.91;;;10.52;73.54
59055;BME280;44845;51.444;7.460;2022-12-24T14:14:27;99498.66;;;10.41;73.30
59055;BME280;44845;51.444;7.460;2022-12-24T14:16:54;99501.28;;;10.40;73.89
59055;BME280;44845;51.444;7.460;2022-12-24T14:19:25;99507.47;;;10.37;73.66
59055;BME280;44845;51.444;7.460;2022-12-24T14:22:02;99503.06;;;10.38;72.82
59055;BME280;44845;51.444;7.460;2022-12-24T14:24:37;99506.63;;;10.33;73.39
59055;BME280;44845;51.444;7.460;2022-12-24T14:27:16;99516.28;;;10.30;73.53
59055;BME280;44845;51.444;7.460;2022-12-24T14:29:50;99522.41;;;10.29;73.68
59055;BME280;44845;51.444;7.460;2022-12-24T14:32:17;99517.31;;;10.16;73.36